sensor_id;sensor_type;location;lat;lon;timestamp;pressure;altitude;pressure_sealevel;temperature;humidity
65013;BME280;51715;39.432;-77.518;2024-02-28T00:00:12;98857.32;;;14.80;48.84
65013;BME280;51715;39.432;-77.518;2024-02-28T00:02:43;98857.61;;;14.19;49.54
65013;BME280;51715;39.432;-77.518;2024-02-28T00:05:14;98858.10;;;13.32;52.58
65013;BME280;51715;39.432;-77.518;2024-02-28T00:07:42;98849.44;;;14.16;50.19
65013;BME280;51715;39.432;-77.518;2024-02-28T00:10:11;98852.03;;;14.47;49.65
65013;BME280;51715;39.432;-77.518;2024-02-28T00:12:43;98843.08;;;14.23;50.18
65013;BME280;51715;39.432;-77.518;2024-02-28T00:15:13;98844.65;;;14.08;50.70
65013;BME280;51715;39.432;-77.518;2024-02-28T00:17:43;98842.18;;;14.14;50.19
65013;BME280;51715;39.432;-77.518;2024-02-28T00:20:14;98844.64;;;14.56;50.02
65013;BME280;51715;39.432;-77.518;2024-02-28T00:22:42;98844.34;;;14.54;49.14
65013;BME280;51715;39.432;-77.518;2024-02-28T00:25:13;98853.03;;;14.89;48.18
65013;BME280;51715;39.432;-77.518;2024-02-28T00:27:41;98847.45;;;14.88;47.86
65013;BME280;51715;39.432;-77.518;2024-02-28T00:30:10;98847.30;;;14.39;49.43
65013;BME280;51715;39.432;-77.518;2024-02-28T00:32:39;98855.64;;;14.55;48.64
65013;BME280;51715;39.432;-77.518;2024-02-28T00:35:08;98867.00;;;14.78;47.97
65013;BME280;51715;39.432;-77.518;2024-02-28T00:37:36;98870.32;;;13.98;49.14
65013;BME280;51715;39.432;-77.518;2024-02-28T00:40:08;98872.17;;;15.16;47.34
65013;BME280;51715;39.432;-77.518;2024-02-28T00:42:36;98870.12;;;14.13;50.04
65013;BME280;51715;39.432;-77.518;2024-02-28T00:45:07;98865.85;;;14.46;49.05
65013;BME280;51715;39.432;-77.518;2024-02-28T00:47:38;98879.06;;;14.42;48.75
65013;BME280;51715;39.432;-77.518;2024-02-28T00:50:18;98878.39;;;15.40;46.80
65013;BME280;51715;39.432;-77.518;2024-02-28T00:52:46;98881.96;;;15.02;47.55
65013;BME280;51715;39.432;-77.518;2024-02-28T00:55:18;98890.82;;;14.57;48.39
65013;BME280;51715;39.432;-77.518;2024-02-28T00:57:48;98888.74;;;13.93;50.53
65013;BME280;51715;39.432;-77.518;2024-02-28T01:00:18;98886.76;;;14.09;50.57
65013;BME280;51715;39.432;-77.518;2024-02-28T01:02:59;98892.07;;;14.72;48.80
65013;BME280;51715;39.432;-77.518;2024-02-28T01:05:30;98884.13;;;14.35;49.50
65013;BME280;51715;39.432;-77.518;2024-02-28T01:07:58;98884.87;;;15.26;47.42
65013;BME280;51715;39.432;-77.518;2024-02-28T01:10:27;98885.67;;;15.64;46.75
65013;BME280;51715;39.432;-77.518;2024-02-28T01:12:55;98886.49;;;16.08;45.91
65013;BME280;51715;39.432;-77.518;2024-02-28T01:15:25;98892.95;;;16.12;45.31
65013;BME280;51715;39.432;-77.518;2024-02-28T01:17:53;98900.92;;;15.54;46.71
65013;BME280;51715;39.432;-77.518;2024-02-28T01:20:24;98901.13;;;14.83;49.11
65013;BME280;51715;39.432;-77.518;2024-02-28T01:22:52;98892.36;;;14.35;50.13
65013;BME280;51715;39.432;-77.518;2024-02-28T01:25:20;98900.71;;;14.95;48.19
65013;BME280;51715;39.432;-77.518;2024-02-28T01:27:51;98900.81;;;14.72;48.67
65013;BME280;51715;39.432;-77.518;2024-02-28T01:30:19;98897.05;;;15.07;47.39
65013;BME280;51715;39.432;-77.518;2024-02-28T01:32:49;98894.22;;;15.23;48.11
65013;BME280;51715;39.432;-77.518;2024-02-28T01:35:19;98894.28;;;14.73;48.78
65013;BME280;51715;39.432;-77.518;2024-02-28T01:37:48;98895.08;;;14.37;49.16
65013;BME280;51715;39.432;-77.518;2024-02-28T01:40:19;98895.78;;;15.16;47.96
65013;BME280;51715;39.432;-77.518;2024-02-28T01:42:49;98894.75;;;15.28;47.34
65013;BME280;51715;39.432;-77.518;2024-02-28T01:45:18;98896.62;;;15.46;47.31
65013;BME280;51715;39.432;-77.518;2024-02-28T01:47:47;98889.62;;;16.01;46.36
65013;BME280;51715;39.432;-77.518;2024-02-28T01:50:15;98889.24;;;15.71;46.50
65013;BME280;51715;39.432;-77.518;2024-02-28T01:52:44;98888.82;;;16.05;45.88
65013;BME280;51715;39.432;-77.518;2024-02-28T01:55:12;98877.13;;;16.40;44.89
65013;BME280;51715;39.432;-77.518;2024-02-28T01:57:41;98873.26;;;16.59;45.13
65013;BME280;51715;39.432;-77.518;2024-02-28T02:00:13;98867.14;;;15.99;45.53
65013;BME280;51715;39.432;-77.518;2024-02-28T02:02:41;98861.63;;;16.00;46.11
65013;BME280;51715;39.432;-77.518;2024-02-28T02:05:10;98866.55;;;16.04;46.35
65013;BME280;51715;39.432;-77.518;2024-02-28T02:07:38;98866.77;;;16.30;44.91
65013;BME280;51715;39.432;-77.518;2024-02-28T02:10:09;98866.81;;;16.59;45.31
65013;BME280;51715;39.432;-77.518;2024-02-28T02:12:37;98857.58;;;16.78;44.48
65013;BME280;51715;39.432;-77.518;2024-02-28T02:15:06;98854.31;;;16.76;43.92
65013;BME280;51715;39.432;-77.518;2024-02-28T02:17:36;98855.66;;;16.69;44.06
65013;BME280;51715;39.432;-77.518;2024-02-28T02:20:07;98852.98;;;16.78;44.02
65013;BME280;51715;39.432;-77.518;2024-02-28T02:22:38;98852.32;;;15.58;46.27
65013;BME280;51715;39.432;-77.518;2024-02-28T02:25:08;98854.23;;;16.67;44.52
65013;BME280;51715;39.432;-77.518;2024-02-28T02:27:37;98860.48;;;16.54;44.82
65013;BME280;51715;39.432;-77.518;2024-02-28T02:30:06;98852.37;;;17.06;43.77
65013;BME280;51715;39.432;-77.518;2024-02-28T02:32:34;98858.70;;;16.65;45.16
65013;BME280;51715;39.432;-77.518;2024-02-28T02:35:05;98859.18;;;16.62;44.24
65013;BME280;51715;39.432;-77.518;2024-02-28T02:37:35;98857.19;;;16.77;44.04
65013;BME280;51715;39.432;-77.518;2024-02-28T02:40:06;98856.04;;;15.52;46.61
65013;BME280;51715;39.432;-77.518;2024-02-28T02:42:54;98853.02;;;16.33;45.91
65013;BME280;51715;39.432;-77.518;2024-02-28T02:45:23;98842.29;;;15.68;46.65
65013;BME280;51715;39.432;-77.518;2024-02-28T02:47:54;98850.56;;;16.13;46.31
65013;BME280;51715;39.432;-77.518;2024-02-28T02:50:22;98855.53;;;16.34;46.10
65013;BME280;51715;39.432;-77.518;2024-02-28T02:52:52;98850.72;;;16.35;45.51
65013;BME280;51715;39.432;-77.518;2024-02-28T02:55:20;98862.64;;;16.25;46.49
65013;BME280;51715;39.432;-77.518;2024-02-28T02:57:52;98869.21;;;14.91;48.45
65013;BME280;51715;39.432;-77.518;2024-02-28T03:00:22;98869.92;;;15.05;48.12
65013;BME280;51715;39.432;-77.518;2024-02-28T03:02:56;98859.80;;;15.43;48.24
65013;BME280;51715;39.432;-77.518;2024-02-28T03:05:25;98857.52;;;16.39;46.60
65013;BME280;51715;39.432;-77.518;2024-02-28T03:07:54;98860.67;;;16.00;46.88
65013;BME280;51715;39.432;-77.518;2024-02-28T03:10:24;98856.26;;;15.94;46.77
65013;BME280;51715;39.432;-77.518;2024-02-28T03:12:54;98848.99;;;16.13;47.39
65013;BME280;51715;39.432;-77.518;2024-02-28T03:15:21;98853.79;;;16.08;47.15
65013;BME280;51715;39.432;-77.518;2024-02-28T03:17:50;98847.10;;;15.26;49.80
65013;BME280;51715;39.432;-77.518;2024-02-28T03:20:18;98835.48;;;14.76;50.22
65013;BME280;51715;39.432;-77.518;2024-02-28T03:22:48;98832.81;;;15.22;49.40
65013;BME280;51715;39.432;-77.518;2024-02-28T03:25:19;98820.13;;;15.40;48.38
65013;BME280;51715;39.432;-77.518;2024-02-28T03:27:48;98815.59;;;15.22;49.31
65013;BME280;51715;39.432;-77.518;2024-02-28T03:30:16;98828.77;;;15.04;49.71
65013;BME280;51715;39.432;-77.518;2024-02-28T03:32:44;98820.25;;;15.33;49.35
65013;BME280;51715;39.432;-77.518;2024-02-28T03:35:12;98806.15;;;15.18;49.44
65013;BME280;51715;39.432;-77.518;2024-02-28T03:37:39;98808.62;;;15.26;49.54
65013;BME280;51715;39.432;-77.518;2024-02-28T03:40:10;98802.54;;;15.88;48.49
65013;BME280;51715;39.432;-77.518;2024-02-28T03:42:38;98795.70;;;15.06;49.86
65013;BME280;51715;39.432;-77.518;2024-02-28T03:45:06;98792.60;;;15.82;48.68
65013;BME280;51715;39.432;-77.518;2024-02-28T03:47:35;98780.78;;;15.77;48.99
65013;BME280;51715;39.432;-77.518;2024-02-28T03:50:05;98791.86;;;16.14;48.46
65013;BME280;51715;39.432;-77.518;2024-02-28T03:52:34;98796.38;;;15.45;49.63
65013;BME280;51715;39.432;-77.518;2024-02-28T03:55:02;98790.71;;;15.23;50.74
65013;BME280;51715;39.432;-77.518;2024-02-28T03:57:32;98783.35;;;15.26;50.21
65013;BME280;51715;39.432;-77.518;2024-02-28T04:00:02;98765.93;;;15.42;50.88
65013;BME280;51715;39.432;-77.518;2024-02-28T04:02:29;98754.66;;;15.10;50.70
65013;BME280;51715;39.432;-77.518;2024-02-28T04:05:00;98754.04;;;15.10;50.51
65013;BME280;51715;39.432;-77.518;2024-02-28T04:07:28;98739.60;;;15.65;49.68
65013;BME280;51715;39.432;-77.518;2024-02-28T04:09:57;98740.37;;;15.51;50.10
65013;BME280;51715;39.432;-77.518;2024-02-28T04:12:26;98738.64;;;15.50;50.01
65013;BME280;51715;39.432;-77.518;2024-02-28T04:14:55;98741.20;;;15.78;49.47
65013;BME280;51715;39.432;-77.518;2024-02-28T04:17:23;98746.13;;;14.96;51.77
65013;BME280;51715;39.432;-77.518;2024-02-28T04:19:52;98750.60;;;15.25;50.38
65013;BME280;51715;39.432;-77.518;2024-02-28T04:22:21;98749.13;;;15.52;50.34
65013;BME280;51715;39.432;-77.518;2024-02-28T04:24:49;98743.65;;;15.31;50.85
65013;BME280;51715;39.432;-77.518;2024-02-28T04:27:17;98743.09;;;15.89;49.71
65013;BME280;51715;39.432;-77.518;2024-02-28T04:29:45;98737.55;;;16.66;48.26
65013;BME280;51715;39.432;-77.518;2024-02-28T04:32:13;98734.42;;;16.81;47.00
65013;BME280;51715;39.432;-77.518;2024-02-28T04:34:42;98734.08;;;17.07;46.49
65013;BME280;51715;39.432;-77.518;2024-02-28T04:37:10;98734.49;;;17.21;45.76
65013;BME280;51715;39.432;-77.518;2024-02-28T04:39:38;98744.79;;;16.09;47.88
65013;BME280;51715;39.432;-77.518;2024-02-28T04:42:10;98740.73;;;16.69;48.02
65013;BME280;51715;39.432;-77.518;2024-02-28T04:44:38;98735.47;;;16.30;48.03
65013;BME280;51715;39.432;-77.518;2024-02-28T04:47:07;98714.40;;;16.57;47.58
65013;BME280;51715;39.432;-77.518;2024-02-28T04:49:37;98700.20;;;17.17;46.52
65013;BME280;51715;39.432;-77.518;2024-02-28T04:52:05;98713.88;;;17.39;46.05
65013;BME280;51715;39.432;-77.518;2024-02-28T04:54:35;98717.14;;;16.59;46.51
65013;BME280;51715;39.432;-77.518;2024-02-28T04:57:04;98708.25;;;16.55;47.14
65013;BME280;51715;39.432;-77.518;2024-02-28T04:59:34;98705.01;;;17.05;46.70
65013;BME280;51715;39.432;-77.518;2024-02-28T05:04:04;98679.48;;;16.08;47.57
65013;BME280;51715;39.432;-77.518;2024-02-28T05:06:31;98682.38;;;16.08;48.02
65013;BME280;51715;39.432;-77.518;2024-02-28T05:09:01;98682.81;;;16.60;46.79
65013;BME280;51715;39.432;-77.518;2024-02-28T05:11:30;98694.64;;;17.33;45.54
65013;BME280;51715;39.432;-77.518;2024-02-28T05:14:01;98695.49;;;16.92;46.63
65013;BME280;51715;39.432;-77.518;2024-02-28T05:16:31;98693.44;;;17.08;47.23
65013;BME280;51715;39.432;-77.518;2024-02-28T05:18:59;98699.42;;;16.05;49.20
65013;BME280;51715;39.432;-77.518;2024-02-28T05:21:27;98702.39;;;16.64;48.07
65013;BME280;51715;39.432;-77.518;2024-02-28T05:23:56;98703.15;;;16.57;48.45
65013;BME280;51715;39.432;-77.518;2024-02-28T05:26:25;98704.21;;;16.82;48.10
65013;BME280;51715;39.432;-77.518;2024-02-28T05:28:54;98695.70;;;17.39;46.99
65013;BME280;51715;39.432;-77.518;2024-02-28T05:31:23;98688.71;;;16.73;48.11
65013;BME280;51715;39.432;-77.518;2024-02-28T05:33:53;98684.40;;;17.03;46.84
65013;BME280;51715;39.432;-77.518;2024-02-28T05:36:22;98686.84;;;16.64;48.39
65013;BME280;51715;39.432;-77.518;2024-02-28T05:38:51;98673.81;;;16.98;46.99
65013;BME280;51715;39.432;-77.518;2024-02-28T05:41:20;98665.64;;;16.48;48.58
65013;BME280;51715;39.432;-77.518;2024-02-28T05:43:49;98667.36;;;16.28;49.05
65013;BME280;51715;39.432;-77.518;2024-02-28T05:46:19;98663.63;;;16.81;49.05
65013;BME280;51715;39.432;-77.518;2024-02-28T05:48:48;98653.16;;;16.59;48.97
65013;BME280;51715;39.432;-77.518;2024-02-28T05:51:17;98648.97;;;16.41;48.97
65013;BME280;51715;39.432;-77.518;2024-02-28T05:53:46;98641.80;;;16.80;48.94
65013;BME280;51715;39.432;-77.518;2024-02-28T05:56:15;98651.05;;;15.96;50.02
65013;BME280;51715;39.432;-77.518;2024-02-28T05:58:47;98650.13;;;16.21;49.87
65013;BME280;51715;39.432;-77.518;2024-02-28T06:01:17;98639.71;;;16.03;49.93
65013;BME280;51715;39.432;-77.518;2024-02-28T06:03:47;98632.53;;;16.61;48.77
65013;BME280;51715;39.432;-77.518;2024-02-28T06:06:15;98630.04;;;17.02;48.03
65013;BME280;51715;39.432;-77.518;2024-02-28T06:08:44;98630.27;;;16.76;48.37
65013;BME280;51715;39.432;-77.518;2024-02-28T06:11:14;98621.39;;;16.53;48.92
65013;BME280;51715;39.432;-77.518;2024-02-28T06:13:42;98627.23;;;17.01;48.05
65013;BME280;51715;39.432;-77.518;2024-02-28T06:16:14;98633.12;;;16.77;48.13
65013;BME280;51715;39.432;-77.518;2024-02-28T06:18:42;98627.50;;;16.99;48.04
65013;BME280;51715;39.432;-77.518;2024-02-28T06:21:12;98633.03;;;17.01;48.15
65013;BME280;51715;39.432;-77.518;2024-02-28T06:23:40;98636.16;;;17.12;47.52
65013;BME280;51715;39.432;-77.518;2024-02-28T06:26:09;98621.96;;;16.82;48.20
65013;BME280;51715;39.432;-77.518;2024-02-28T06:28:39;98617.09;;;16.29;50.18
65013;BME280;51715;39.432;-77.518;2024-02-28T06:31:13;98595.52;;;17.12;48.23
65013;BME280;51715;39.432;-77.518;2024-02-28T06:33:43;98583.54;;;17.68;47.01
65013;BME280;51715;39.432;-77.518;2024-02-28T06:36:12;98577.58;;;17.42;47.10
65013;BME280;51715;39.432;-77.518;2024-02-28T06:38:41;98578.10;;;16.19;50.35
65013;BME280;51715;39.432;-77.518;2024-02-28T06:41:09;98568.21;;;16.38;49.10
65013;BME280;51715;39.432;-77.518;2024-02-28T06:43:37;98565.11;;;17.16;47.38
65013;BME280;51715;39.432;-77.518;2024-02-28T06:46:05;98551.49;;;17.30;47.26
65013;BME280;51715;39.432;-77.518;2024-02-28T06:48:34;98542.54;;;16.88;47.97
65013;BME280;51715;39.432;-77.518;2024-02-28T06:51:02;98531.77;;;15.94;50.15
65013;BME280;51715;39.432;-77.518;2024-02-28T06:53:30;98517.23;;;16.67;48.73
65013;BME280;51715;39.432;-77.518;2024-02-28T06:56:00;98528.66;;;16.84;48.58
65013;BME280;51715;39.432;-77.518;2024-02-28T06:58:28;98532.21;;;16.16;49.89
65013;BME280;51715;39.432;-77.518;2024-02-28T07:00:56;98530.82;;;16.48;49.64
65013;BME280;51715;39.432;-77.518;2024-02-28T07:03:26;98531.59;;;16.89;48.75
65013;BME280;51715;39.432;-77.518;2024-02-28T07:05:55;98535.11;;;17.27;48.14
65013;BME280;51715;39.432;-77.518;2024-02-28T07:08:23;98526.22;;;17.41;47.24
65013;BME280;51715;39.432;-77.518;2024-02-28T07:10:52;98516.01;;;16.63;49.48
65013;BME280;51715;39.432;-77.518;2024-02-28T07:13:20;98521.11;;;17.33;48.33
65013;BME280;51715;39.432;-77.518;2024-02-28T07:15:49;98521.91;;;17.31;47.53
65013;BME280;51715;39.432;-77.518;2024-02-28T07:18:17;98532.88;;;16.89;48.83
65013;BME280;51715;39.432;-77.518;2024-02-28T07:20:47;98553.39;;;16.68;48.73
65013;BME280;51715;39.432;-77.518;2024-02-28T07:23:15;98555.64;;;16.93;48.65
65013;BME280;51715;39.432;-77.518;2024-02-28T07:25:44;98572.70;;;17.54;48.03
65013;BME280;51715;39.432;-77.518;2024-02-28T07:28:13;98581.97;;;17.19;47.70
65013;BME280;51715;39.432;-77.518;2024-02-28T07:30:41;98589.50;;;16.25;50.81
65013;BME280;51715;39.432;-77.518;2024-02-28T07:33:09;98579.99;;;17.10;48.92
65013;BME280;51715;39.432;-77.518;2024-02-28T07:35:48;98579.28;;;16.08;51.95
65013;BME280;51715;39.432;-77.518;2024-02-28T07:38:19;98567.78;;;15.96;52.34
65013;BME280;51715;39.432;-77.518;2024-02-28T07:40:48;98552.88;;;16.08;51.21
65013;BME280;51715;39.432;-77.518;2024-02-28T07:43:18;98545.48;;;16.12;51.56
65013;BME280;51715;39.432;-77.518;2024-02-28T07:45:46;98547.73;;;16.60;50.20
65013;BME280;51715;39.432;-77.518;2024-02-28T07:48:14;98544.36;;;16.01;51.16
65013;BME280;51715;39.432;-77.518;2024-02-28T07:50:43;98541.25;;;16.55;50.34
65013;BME280;51715;39.432;-77.518;2024-02-28T07:53:12;98540.50;;;16.47;49.43
65013;BME280;51715;39.432;-77.518;2024-02-28T07:55:40;98540.71;;;16.56;50.32
65013;BME280;51715;39.432;-77.518;2024-02-28T07:58:09;98537.11;;;16.52;49.61
65013;BME280;51715;39.432;-77.518;2024-02-28T08:00:37;98542.83;;;16.69;50.49
65013;BME280;51715;39.432;-77.518;2024-02-28T08:03:07;98541.23;;;15.91;52.09
65013;BME280;51715;39.432;-77.518;2024-02-28T08:05:36;98549.13;;;15.88;51.64
65013;BME280;51715;39.432;-77.518;2024-02-28T08:08:05;98539.61;;;16.61;50.33
65013;BME280;51715;39.432;-77.518;2024-02-28T08:10:34;98530.51;;;15.25;54.00
65013;BME280;51715;39.432;-77.518;2024-02-28T08:13:04;98537.16;;;15.92;51.91
65013;BME280;51715;39.432;-77.518;2024-02-28T08:15:34;98537.21;;;15.93;52.13
65013;BME280;51715;39.432;-77.518;2024-02-28T08:18:03;98544.02;;;16.67;50.78
65013;BME280;51715;39.432;-77.518;2024-02-28T08:20:32;98543.99;;;16.36;51.51
65013;BME280;51715;39.432;-77.518;2024-02-28T08:23:00;98535.56;;;16.51;50.66
65013;BME280;51715;39.432;-77.518;2024-02-28T08:25:30;98545.62;;;17.02;49.57
65013;BME280;51715;39.432;-77.518;2024-02-28T08:27:59;98554.80;;;17.39;48.92
65013;BME280;51715;39.432;-77.518;2024-02-28T08:30:27;98551.35;;;17.16;49.30
65013;BME280;51715;39.432;-77.518;2024-02-28T08:32:57;98528.08;;;16.54;50.87
65013;BME280;51715;39.432;-77.518;2024-02-28T08:35:26;98535.24;;;16.44;50.68
65013;BME280;51715;39.432;-77.518;2024-02-28T08:37:56;98540.93;;;16.47;51.07
65013;BME280;51715;39.432;-77.518;2024-02-28T08:40:24;98544.95;;;16.77;50.49
65013;BME280;51715;39.432;-77.518;2024-02-28T08:42:52;98540.92;;;16.35;50.74
65013;BME280;51715;39.432;-77.518;2024-02-28T08:45:20;98526.22;;;16.93;49.16
65013;BME280;51715;39.432;-77.518;2024-02-28T08:47:49;98513.20;;;16.85;49.01
65013;BME280;51715;39.432;-77.518;2024-02-28T08:50:18;98500.44;;;16.47;49.97
65013;BME280;51715;39.432;-77.518;2024-02-28T08:52:46;98498.35;;;17.03;48.81
65013;BME280;51715;39.432;-77.518;2024-02-28T08:55:15;98536.17;;;16.35;50.95
65013;BME280;51715;39.432;-77.518;2024-02-28T08:57:43;98535.98;;;16.70;49.75
65013;BME280;51715;39.432;-77.518;2024-02-28T09:00:14;98502.24;;;16.66;49.59
65013;BME280;51715;39.432;-77.518;2024-02-28T09:02:42;98531.27;;;17.34;48.63
65013;BME280;51715;39.432;-77.518;2024-02-28T09:05:10;98530.61;;;16.72;49.78
65013;BME280;51715;39.432;-77.518;2024-02-28T09:07:39;98546.02;;;17.21;48.50
65013;BME280;51715;39.432;-77.518;2024-02-28T09:10:08;98547.85;;;17.33;47.83
65013;BME280;51715;39.432;-77.518;2024-02-28T09:12:38;98556.97;;;16.93;48.42
65013;BME280;51715;39.432;-77.518;2024-02-28T09:15:07;98549.39;;;17.26;47.74
65013;BME280;51715;39.432;-77.518;2024-02-28T09:17:36;98532.71;;;16.95;48.62
65013;BME280;51715;39.432;-77.518;2024-02-28T09:20:05;98498.77;;;15.88;52.04
65013;BME280;51715;39.432;-77.518;2024-02-28T09:22:34;98480.88;;;16.60;49.79
65013;BME280;51715;39.432;-77.518;2024-02-28T09:25:02;98469.88;;;16.83;48.74
65013;BME280;51715;39.432;-77.518;2024-02-28T09:27:32;98464.52;;;17.51;48.32
65013;BME280;51715;39.432;-77.518;2024-02-28T09:30:00;98453.80;;;16.72;49.22
65013;BME280;51715;39.432;-77.518;2024-02-28T09:32:28;98431.08;;;16.28;50.75
65013;BME280;51715;39.432;-77.518;2024-02-28T09:34:56;98415.42;;;16.71;50.18
65013;BME280;51715;39.432;-77.518;2024-02-28T09:37:24;98417.64;;;16.91;49.43
65013;BME280;51715;39.432;-77.518;2024-02-28T09:39:54;98399.73;;;16.98;49.13
65013;BME280;51715;39.432;-77.518;2024-02-28T09:42:22;98408.79;;;17.12;49.28
65013;BME280;51715;39.432;-77.518;2024-02-28T09:44:52;98464.61;;;16.47;50.22
65013;BME280;51715;39.432;-77.518;2024-02-28T09:47:23;98464.69;;;16.51;50.55
65013;BME280;51715;39.432;-77.518;2024-02-28T09:49:54;98430.49;;;16.94;49.74
65013;BME280;51715;39.432;-77.518;2024-02-28T09:52:25;98436.44;;;16.53;49.81
65013;BME280;51715;39.432;-77.518;2024-02-28T09:54:53;98433.92;;;17.16;48.68
65013;BME280;51715;39.432;-77.518;2024-02-28T09:57:22;98430.57;;;17.09;49.00
65013;BME280;51715;39.432;-77.518;2024-02-28T09:59:53;98423.32;;;17.08;49.02
65013;BME280;51715;39.432;-77.518;2024-02-28T10:02:24;98412.89;;;17.20;48.72
65013;BME280;51715;39.432;-77.518;2024-02-28T10:04:53;98409.66;;;17.66;47.92
65013;BME280;51715;39.432;-77.518;2024-02-28T10:07:23;98409.16;;;17.13;48.29
65013;BME280;51715;39.432;-77.518;2024-02-28T10:09:52;98411.73;;;17.15;48.50
65013;BME280;51715;39.432;-77.518;2024-02-28T10:12:21;98415.82;;;17.31;48.42
65013;BME280;51715;39.432;-77.518;2024-02-28T10:14:50;98401.48;;;17.22;47.73
65013;BME280;51715;39.432;-77.518;2024-02-28T10:17:19;98393.45;;;17.68;47.33
65013;BME280;51715;39.432;-77.518;2024-02-28T10:19:48;98389.17;;;17.32;47.22
65013;BME280;51715;39.432;-77.518;2024-02-28T10:22:19;98378.86;;;17.19;47.61
65013;BME280;51715;39.432;-77.518;2024-02-28T10:24:48;98374.54;;;17.49;47.60
65013;BME280;51715;39.432;-77.518;2024-02-28T10:27:17;98390.37;;;17.16;47.35
65013;BME280;51715;39.432;-77.518;2024-02-28T10:29:46;98392.99;;;17.16;48.08
65013;BME280;51715;39.432;-77.518;2024-02-28T10:32:13;98397.39;;;17.09;47.77
65013;BME280;51715;39.432;-77.518;2024-02-28T10:34:42;98397.33;;;17.28;47.50
65013;BME280;51715;39.432;-77.518;2024-02-28T10:37:12;98386.97;;;17.22;47.09
65013;BME280;51715;39.432;-77.518;2024-02-28T10:39:42;98392.21;;;17.21;47.53
65013;BME280;51715;39.432;-77.518;2024-02-28T10:42:12;98400.86;;;17.00;48.15
65013;BME280;51715;39.432;-77.518;2024-02-28T10:44:41;98400.06;;;16.77;48.48
65013;BME280;51715;39.432;-77.518;2024-02-28T10:47:12;98399.49;;;17.06;48.07
65013;BME280;51715;39.432;-77.518;2024-02-28T10:49:43;98405.83;;;16.49;48.80
65013;BME280;51715;39.432;-77.518;2024-02-28T10:52:12;98413.44;;;15.98;50.42
65013;BME280;51715;39.432;-77.518;2024-02-28T10:54:43;98403.61;;;16.24;50.39
65013;BME280;51715;39.432;-77.518;2024-02-28T10:57:16;98418.41;;;16.25;49.47
65013;BME280;51715;39.432;-77.518;2024-02-28T10:59:47;98420.62;;;16.74;49.48
65013;BME280;51715;39.432;-77.518;2024-02-28T11:02:16;98414.94;;;16.91;48.22
65013;BME280;51715;39.432;-77.518;2024-02-28T11:04:44;98409.45;;;16.89;48.18
65013;BME280;51715;39.432;-77.518;2024-02-28T11:07:20;98406.79;;;17.06;47.86
65013;BME280;51715;39.432;-77.518;2024-02-28T11:09:53;98415.75;;;16.91;47.57
65013;BME280;51715;39.432;-77.518;2024-02-28T11:12:31;98419.42;;;16.82;47.31
65013;BME280;51715;39.432;-77.518;2024-02-28T11:15:00;98418.75;;;17.00;47.32
65013;BME280;51715;39.432;-77.518;2024-02-28T11:17:30;98408.35;;;16.96;47.59
65013;BME280;51715;39.432;-77.518;2024-02-28T11:19:58;98394.87;;;16.28;49.19
65013;BME280;51715;39.432;-77.518;2024-02-28T11:22:29;98384.24;;;16.44;48.59
65013;BME280;51715;39.432;-77.518;2024-02-28T11:24:58;98388.27;;;15.64;50.10
65013;BME280;51715;39.432;-77.518;2024-02-28T11:27:30;98374.77;;;16.03;50.20
65013;BME280;51715;39.432;-77.518;2024-02-28T11:29:58;98376.93;;;15.54;51.13
65013;BME280;51715;39.432;-77.518;2024-02-28T11:32:26;98387.31;;;16.47;49.86
65013;BME280;51715;39.432;-77.518;2024-02-28T11:34:54;98383.22;;;16.20;50.13
65013;BME280;51715;39.432;-77.518;2024-02-28T11:37:23;98396.84;;;16.28;49.28
65013;BME280;51715;39.432;-77.518;2024-02-28T11:39:50;98392.70;;;16.49;48.82
65013;BME280;51715;39.432;-77.518;2024-02-28T11:42:19;98384.48;;;16.51;47.87
65013;BME280;51715;39.432;-77.518;2024-02-28T11:44:53;98374.82;;;16.95;47.05
65013;BME280;51715;39.432;-77.518;2024-02-28T11:47:22;98354.73;;;17.27;47.35
65013;BME280;51715;39.432;-77.518;2024-02-28T11:49:50;98332.69;;;17.25;46.57
65013;BME280;51715;39.432;-77.518;2024-02-28T11:52:21;98337.41;;;16.91;47.00
65013;BME280;51715;39.432;-77.518;2024-02-28T11:54:49;98349.16;;;16.56;47.58
65013;BME280;51715;39.432;-77.518;2024-02-28T11:57:18;98364.90;;;17.07;47.73
65013;BME280;51715;39.432;-77.518;2024-02-28T11:59:46;98380.20;;;17.34;46.81
65013;BME280;51715;39.432;-77.518;2024-02-28T12:02:15;98366.05;;;17.09;47.25
65013;BME280;51715;39.432;-77.518;2024-02-28T12:04:43;98354.89;;;17.45;46.63
65013;BME280;51715;39.432;-77.518;2024-02-28T12:07:11;98354.52;;;16.46;48.41
65013;BME280;51715;39.432;-77.518;2024-02-28T12:09:39;98364.69;;;16.97;47.08
65013;BME280;51715;39.432;-77.518;2024-02-28T12:12:09;98362.36;;;16.95;47.62
65013;BME280;51715;39.432;-77.518;2024-02-28T12:14:38;98354.39;;;16.88;47.99
65013;BME280;51715;39.432;-77.518;2024-02-28T12:17:07;98336.78;;;16.50;48.36
65013;BME280;51715;39.432;-77.518;2024-02-28T12:19:38;98336.83;;;16.50;48.60
65013;BME280;51715;39.432;-77.518;2024-02-28T12:22:07;98341.14;;;17.27;46.82
65013;BME280;51715;39.432;-77.518;2024-02-28T12:24:35;98355.69;;;16.87;48.01
65013;BME280;51715;39.432;-77.518;2024-02-28T12:27:05;98356.50;;;17.14;47.77
65013;BME280;51715;39.432;-77.518;2024-02-28T12:29:34;98352.93;;;17.32;47.10
65013;BME280;51715;39.432;-77.518;2024-02-28T12:32:03;98361.56;;;17.79;46.42
65013;BME280;51715;39.432;-77.518;2024-02-28T12:34:32;98369.12;;;17.26;47.69
65013;BME280;51715;39.432;-77.518;2024-02-28T12:37:01;98357.43;;;17.23;47.85
65013;BME280;51715;39.432;-77.518;2024-02-28T12:39:31;98350.83;;;16.85;47.82
65013;BME280;51715;39.432;-77.518;2024-02-28T12:41:59;98336.06;;;17.33;46.77
65013;BME280;51715;39.432;-77.518;2024-02-28T12:44:27;98338.69;;;17.13;47.81
65013;BME280;51715;39.432;-77.518;2024-02-28T12:46:55;98333.15;;;17.52;46.65
65013;BME280;51715;39.432;-77.518;2024-02-28T12:49:27;98322.88;;;17.65;46.24
65013;BME280;51715;39.432;-77.518;2024-02-28T12:51:55;98329.41;;;17.67;46.28